This is the latest recevied weather packets stored in our database for station/object K4GDX. If no packets are shown the sender has not sent any weather packets the latest 10 day(s).
| Time | Temp. | Humidity | Pressure | Rain* | Wind** | Luminosity | Snow |
|---|---|---|---|---|---|---|---|
| 1777409262 | 25° C | 76% | 1019.2 hPa | 0 mm | - | 640 W/m² | - |
| 1777408959 | 25.56° C | 76% | 1019.3 hPa | 0 mm | - | 726 W/m² | - |
| 1777408659 | 25.56° C | 76% | 1019.4 hPa | 0 mm | - | 707 W/m² | - |
| 1777408362 | 25.56° C | 75% | 1019.5 hPa | 0 mm | - | 714 W/m² | - |
| 1777408057 | 25.56° C | 75% | 1019.6 hPa | 0 mm | - | 724 W/m² | - |
| 1777407756 | 25.56° C | 75% | 1019.5 hPa | 0 mm | - | 728 W/m² | - |
| 1777407458 | 25.56° C | 76% | 1019.6 hPa | 0 mm | - | 726 W/m² | - |
| 1777407156 | 26.11° C | 74% | 1019.8 hPa | 0 mm | - | 775 W/m² | - |
| 1777406854 | 26.11° C | 75% | 1019.8 hPa | 0 mm | - | 789 W/m² | - |
| 1777406558 | 26.11° C | 73% | 1019.8 hPa | 0 mm | - | 768 W/m² | - |
| 1777406252 | 26.11° C | 74% | 1019.9 hPa | 0 mm | - | 773 W/m² | - |
| 1777405953 | 26.11° C | 74% | 1019.9 hPa | 0 mm | - | 789 W/m² | - |
| 1777405655 | 26.11° C | 74% | 1019.9 hPa | 0 mm | - | 793 W/m² | - |
| 1777405352 | 26.11° C | 75% | 1020.1 hPa | 0 mm | - | 809 W/m² | - |
| 1777405052 | 26.11° C | 74% | 1020.2 hPa | 0 mm | - | 824 W/m² | - |
| 1777404754 | 26.11° C | 74% | 1020.2 hPa | 0 mm | - | 856 W/m² | - |
| 1777404452 | 26.11° C | 74% | 1020.3 hPa | 0 mm | - | 868 W/m² | - |
| 1777404152 | 26.67° C | 73% | 1020.3 hPa | 0 mm | - | 872 W/m² | - |
| 1777403856 | 26.67° C | 73% | 1020.3 hPa | 0 mm | - | 889 W/m² | - |
| 1777403551 | 26.67° C | 73% | 1020.5 hPa | 0 mm | - | 902 W/m² | - |
| 1777403250 | 26.67° C | 73% | 1020.4 hPa | 0 mm | - | 898 W/m² | - |
| 1777402956 | 27.22° C | 71% | 1020.5 hPa | 0 mm | - | 911 W/m² | - |
| 1777402650 | 27.22° C | 73% | 1020.6 hPa | 0 mm | - | 1000 W/m² | - |
| 1777402351 | 27.22° C | 72% | 1020.7 hPa | 0 mm | - | 967 W/m² | - |
| 1777402052 | 26.67° C | 70% | 1020.8 hPa | 0 mm | - | 926 W/m² | - |
* Rain latest hour (hover to see other rain measurements)
** Current wind speed in m/s (hover to see current wind gust speed)